createdAt,value
2024-01-10T00:00:14.165Z,971.94
2024-01-10T00:01:14.183Z,971.98
2024-01-10T00:02:14.151Z,971.97
2024-01-10T00:03:14.098Z,971.93
2024-01-10T00:04:14.171Z,971.96
2024-01-10T00:05:15.064Z,971.97
2024-01-10T00:06:14.159Z,971.93
2024-01-10T00:07:14.042Z,971.92
2024-01-10T00:08:14.096Z,971.98
2024-01-10T00:09:14.025Z,971.99
2024-01-10T00:10:14.002Z,971.96
2024-01-10T00:11:14.084Z,972.00
2024-01-10T00:12:14.004Z,971.93
2024-01-10T00:13:13.978Z,971.94
2024-01-10T00:14:14.054Z,971.97
2024-01-10T00:15:13.941Z,972.06
2024-01-10T00:16:13.954Z,972.02
2024-01-10T00:17:14.025Z,972.03
2024-01-10T00:18:14.002Z,972.00
2024-01-10T00:19:13.952Z,971.98
2024-01-10T00:20:13.973Z,972.01
2024-01-10T00:21:13.878Z,972.00
2024-01-10T00:22:13.874Z,971.96
2024-01-10T00:23:13.923Z,972.01
2024-01-10T00:24:13.885Z,971.93
2024-01-10T00:25:13.854Z,971.96
2024-01-10T00:26:13.899Z,971.96
2024-01-10T00:27:13.814Z,972.00
2024-01-10T00:28:13.817Z,971.93
2024-01-10T00:29:13.876Z,971.94
2024-01-10T00:30:13.867Z,971.90
2024-01-10T00:31:13.810Z,971.87
2024-01-10T00:32:13.892Z,971.91
2024-01-10T00:33:13.804Z,971.88
2024-01-10T00:34:13.795Z,971.86
2024-01-10T00:35:13.799Z,971.81
2024-01-10T00:36:13.759Z,971.82
2024-01-10T00:37:13.703Z,971.83
2024-01-10T00:38:13.746Z,971.87
2024-01-10T00:39:13.775Z,971.86
2024-01-10T00:40:13.687Z,971.86
2024-01-10T00:41:13.803Z,971.89
2024-01-10T00:42:13.689Z,971.89
2024-01-10T00:43:13.645Z,971.88
2024-01-10T00:44:13.670Z,971.95
2024-01-10T00:45:13.637Z,971.87
2024-01-10T00:46:13.630Z,971.92
2024-01-10T00:47:13.708Z,971.92
2024-01-10T00:48:13.764Z,971.91
2024-01-10T00:49:13.674Z,971.93
2024-01-10T00:50:13.622Z,971.88
2024-01-10T00:51:13.584Z,971.90
2024-01-10T00:52:13.567Z,971.96
2024-01-10T00:53:13.555Z,971.96
2024-01-10T00:54:13.556Z,971.95
2024-01-10T00:55:13.516Z,971.98
2024-01-10T00:56:13.536Z,971.97
2024-01-10T00:57:13.521Z,971.99
2024-01-10T00:58:13.505Z,971.92
2024-01-10T00:59:13.636Z,971.97
2024-01-10T01:00:13.482Z,971.93
2024-01-10T01:01:13.543Z,972.01
2024-01-10T01:02:13.622Z,971.99
2024-01-10T01:03:13.465Z,972.01
2024-01-10T01:04:13.449Z,971.94
2024-01-10T01:05:13.592Z,971.97
2024-01-10T01:06:13.534Z,971.97
2024-01-10T01:07:13.386Z,971.92
2024-01-10T01:08:13.480Z,971.96
2024-01-10T01:09:13.373Z,971.97
2024-01-10T01:10:13.351Z,971.99
2024-01-10T01:11:13.449Z,971.89
2024-01-10T01:12:13.344Z,971.94
2024-01-10T01:13:13.325Z,971.95
2024-01-10T01:14:13.352Z,971.94
2024-01-10T01:15:13.299Z,971.96
2024-01-10T01:16:13.291Z,971.97
2024-01-10T01:17:13.426Z,972.02
2024-01-10T01:18:13.335Z,971.97
2024-01-10T01:19:13.325Z,971.97
2024-01-10T01:20:13.368Z,972.02
2024-01-10T01:21:13.255Z,971.97
2024-01-10T01:22:13.230Z,972.00
2024-01-10T01:23:14.972Z,972.07
2024-01-10T01:24:13.213Z,972.02
2024-01-10T01:25:13.192Z,972.02
2024-01-10T01:26:13.281Z,972.09
2024-01-10T01:27:13.187Z,972.07
2024-01-10T01:28:13.216Z,972.03
2024-01-10T01:29:13.327Z,972.18
2024-01-10T01:30:13.190Z,972.10
2024-01-10T01:31:13.131Z,972.05
2024-01-10T01:32:13.166Z,972.01
2024-01-10T01:33:13.216Z,972.01
2024-01-10T01:34:13.171Z,972.05
2024-01-10T01:35:13.184Z,972.06
2024-01-10T01:36:13.105Z,972.11
2024-01-10T01:37:13.065Z,972.11
2024-01-10T01:38:13.122Z,972.09
2024-01-10T01:39:13.074Z,972.13
2024-01-10T01:40:13.050Z,972.11
2024-01-10T01:41:13.193Z,972.12
2024-01-10T01:42:13.026Z,972.17
2024-01-10T01:43:13.020Z,972.20
2024-01-10T01:44:13.054Z,972.21
2024-01-10T01:45:12.982Z,972.10
2024-01-10T01:46:12.986Z,972.23
2024-01-10T01:47:13.082Z,972.17
2024-01-10T01:48:13.059Z,972.20
2024-01-10T01:49:13.206Z,972.19
2024-01-10T01:50:13.075Z,972.16
2024-01-10T01:51:12.924Z,972.20
2024-01-10T01:52:12.963Z,972.18
2024-01-10T01:53:13.056Z,972.21
2024-01-10T01:54:12.904Z,972.14
2024-01-10T01:55:12.888Z,972.16
2024-01-10T01:56:12.931Z,972.27
2024-01-10T01:57:12.849Z,972.26
2024-01-10T01:58:12.853Z,972.25
2024-01-10T01:59:12.878Z,972.27
2024-01-10T02:00:12.861Z,972.34
2024-01-10T02:01:12.942Z,972.28
2024-01-10T02:02:12.894Z,972.28
2024-01-10T02:03:12.889Z,972.32
2024-01-10T02:04:12.857Z,972.27
2024-01-10T02:05:12.904Z,972.29
2024-01-10T02:06:12.790Z,972.25
2024-01-10T02:07:12.757Z,972.24
2024-01-10T02:08:12.872Z,972.22
2024-01-10T02:09:12.737Z,972.18
2024-01-10T02:10:12.725Z,972.27
2024-01-10T02:11:12.806Z,972.29
2024-01-10T02:12:12.695Z,972.28
2024-01-10T02:13:12.683Z,972.25
2024-01-10T02:14:12.712Z,972.24
2024-01-10T02:15:12.664Z,972.22
2024-01-10T02:16:12.690Z,972.21
2024-01-10T02:17:12.714Z,972.18
2024-01-10T02:18:12.680Z,972.16
2024-01-10T02:19:12.650Z,972.16
2024-01-10T02:20:12.675Z,972.19
2024-01-10T02:21:12.605Z,972.23
2024-01-10T02:22:12.607Z,972.28
2024-01-10T02:23:12.640Z,972.19
2024-01-10T02:24:12.599Z,972.25
2024-01-10T02:25:12.560Z,972.21
2024-01-10T02:26:12.615Z,972.29
2024-01-10T02:27:12.561Z,972.28
2024-01-10T02:28:12.515Z,972.23
2024-01-10T02:29:12.638Z,972.24
2024-01-10T02:30:12.754Z,972.20
2024-01-10T02:31:12.573Z,972.20
2024-01-10T02:32:12.491Z,972.21
2024-01-10T02:33:12.597Z,972.20
2024-01-10T02:34:12.572Z,972.19
2024-01-10T02:35:12.483Z,972.22
2024-01-10T02:36:12.470Z,972.22
2024-01-10T02:37:12.441Z,972.16
2024-01-10T02:38:12.428Z,972.19
2024-01-10T02:39:12.423Z,972.13
2024-01-10T02:40:12.399Z,972.17
2024-01-10T02:41:12.478Z,972.17
2024-01-10T02:42:12.395Z,972.17
2024-01-10T02:43:12.365Z,972.19
2024-01-10T02:44:12.397Z,972.20
2024-01-10T02:45:12.340Z,972.16
2024-01-10T02:46:12.325Z,972.14
2024-01-10T02:47:12.451Z,972.12
2024-01-10T02:48:12.390Z,972.08
2024-01-10T02:49:12.341Z,972.06
2024-01-10T02:50:12.373Z,972.11
2024-01-10T02:51:12.284Z,972.12
2024-01-10T02:52:12.261Z,972.09
2024-01-10T02:53:12.305Z,972.14
2024-01-10T02:54:12.826Z,972.15
2024-01-10T02:55:12.250Z,972.16
2024-01-10T02:56:12.305Z,972.15
2024-01-10T02:57:12.224Z,972.09
2024-01-10T02:58:12.199Z,972.09
2024-01-10T02:59:12.229Z,972.11
2024-01-10T03:00:12.208Z,972.14
2024-01-10T03:01:12.216Z,972.13
2024-01-10T03:02:12.241Z,972.13
2024-01-10T03:03:12.180Z,972.12
2024-01-10T03:04:12.164Z,972.12
2024-01-10T03:05:12.187Z,972.09
2024-01-10T03:06:12.174Z,972.10
2024-01-10T03:07:12.134Z,972.10
2024-01-10T03:08:12.138Z,972.12
2024-01-10T03:09:12.098Z,972.05
2024-01-10T03:10:12.089Z,972.08
2024-01-10T03:11:12.201Z,972.06
2024-01-10T03:12:12.085Z,972.08
2024-01-10T03:13:12.041Z,971.97
2024-01-10T03:14:12.127Z,971.96
2024-01-10T03:15:12.050Z,972.00
2024-01-10T03:16:12.009Z,971.93
2024-01-10T03:17:12.032Z,971.90
2024-01-10T03:18:12.052Z,971.89
2024-01-10T03:19:12.012Z,971.92
2024-01-10T03:20:12.080Z,972.00
2024-01-10T03:21:11.995Z,971.95
2024-01-10T03:22:11.938Z,971.94
2024-01-10T03:23:11.959Z,971.89
2024-01-10T03:24:11.951Z,971.95
2024-01-10T03:25:11.927Z,971.95
2024-01-10T03:26:12.000Z,971.92
2024-01-10T03:27:11.909Z,971.95
2024-01-10T03:28:11.888Z,971.93
2024-01-10T03:29:11.918Z,971.90
2024-01-10T03:30:11.954Z,971.92
2024-01-10T03:31:11.892Z,971.94
2024-01-10T03:32:11.993Z,971.88
2024-01-10T03:33:12.069Z,971.94
2024-01-10T03:34:11.982Z,971.86
2024-01-10T03:35:11.876Z,971.92
2024-01-10T03:36:11.868Z,971.88
2024-01-10T03:37:11.920Z,971.87
2024-01-10T03:38:11.812Z,971.83
2024-01-10T03:39:11.763Z,971.84
2024-01-10T03:40:11.744Z,971.89
2024-01-10T03:41:11.907Z,971.89
2024-01-10T03:42:11.749Z,971.94
2024-01-10T03:43:11.785Z,971.90
2024-01-10T03:44:11.735Z,971.88
2024-01-10T03:45:11.702Z,971.91
2024-01-10T03:46:11.679Z,971.93
2024-01-10T03:47:11.721Z,971.94
2024-01-10T03:48:11.719Z,971.97
2024-01-10T03:49:11.754Z,971.93
2024-01-10T03:50:11.687Z,971.94
2024-01-10T03:51:11.630Z,971.95
2024-01-10T03:52:11.639Z,971.91
2024-01-10T03:53:11.645Z,971.95
2024-01-10T03:54:11.596Z,971.88
2024-01-10T03:55:11.615Z,971.88
2024-01-10T03:56:11.659Z,971.90
2024-01-10T03:57:11.579Z,971.91
2024-01-10T03:58:11.565Z,971.87
2024-01-10T03:59:11.585Z,971.95
2024-01-10T04:00:11.577Z,971.88
2024-01-10T04:01:11.694Z,971.92
2024-01-10T04:02:11.586Z,971.88
2024-01-10T04:03:11.608Z,971.82
2024-01-10T04:04:11.499Z,971.80
2024-01-10T04:05:11.664Z,971.86
2024-01-10T04:06:11.530Z,971.84
2024-01-10T04:07:11.498Z,971.81
2024-01-10T04:08:11.497Z,971.79
2024-01-10T04:09:11.433Z,971.83
2024-01-10T04:10:11.527Z,971.80
2024-01-10T04:11:11.486Z,971.86
2024-01-10T04:12:11.411Z,971.88
2024-01-10T04:13:11.403Z,971.85
2024-01-10T04:14:11.463Z,971.87
2024-01-10T04:15:11.378Z,971.80
2024-01-10T04:16:11.381Z,971.80
2024-01-10T04:17:11.441Z,971.83
2024-01-10T04:18:15.013Z,971.82
2024-01-10T04:19:12.480Z,971.85
2024-01-10T04:20:11.430Z,971.83
2024-01-10T04:21:11.490Z,971.76
2024-01-10T04:22:11.307Z,971.76
2024-01-10T04:23:11.346Z,971.82
2024-01-10T04:24:11.308Z,971.82
2024-01-10T04:25:11.313Z,971.84
2024-01-10T04:26:11.263Z,971.79
2024-01-10T04:27:11.355Z,971.87
2024-01-10T04:28:11.287Z,971.88
2024-01-10T04:29:11.265Z,971.83
2024-01-10T04:30:11.300Z,971.83
2024-01-10T04:31:11.365Z,971.85
2024-01-10T04:32:11.250Z,971.83
2024-01-10T04:33:11.234Z,971.76
2024-01-10T04:34:11.229Z,971.73
2024-01-10T04:35:11.353Z,971.77
2024-01-10T04:36:11.148Z,971.80
2024-01-10T04:37:11.165Z,971.84
2024-01-10T04:38:11.230Z,971.83
2024-01-10T04:39:11.142Z,971.86
2024-01-10T04:40:11.151Z,971.81
2024-01-10T04:41:11.281Z,971.81
2024-01-10T04:42:11.109Z,971.80
2024-01-10T04:43:11.120Z,971.80
2024-01-10T04:44:11.148Z,971.83
2024-01-10T04:45:11.075Z,971.82
2024-01-10T04:46:11.825Z,971.83
2024-01-10T04:47:11.125Z,971.88
2024-01-10T04:48:11.138Z,971.79
2024-01-10T04:49:11.183Z,971.87
2024-01-10T04:50:14.095Z,971.89
2024-01-10T04:51:11.059Z,971.87
2024-01-10T04:52:10.999Z,971.86
2024-01-10T04:53:10.984Z,971.84
2024-01-10T04:54:10.971Z,971.83
2024-01-10T04:55:10.992Z,971.87
2024-01-10T04:56:11.098Z,971.84
2024-01-10T04:57:11.004Z,971.87
2024-01-10T04:58:10.933Z,971.88
2024-01-10T04:59:10.954Z,971.84
2024-01-10T05:00:10.917Z,971.90
2024-01-10T05:01:10.976Z,971.86
2024-01-10T05:02:10.921Z,971.93
2024-01-10T05:03:10.965Z,971.90
2024-01-10T05:04:10.866Z,971.87
2024-01-10T05:05:11.056Z,971.92
2024-01-10T05:06:10.884Z,971.87
2024-01-10T05:07:10.837Z,971.97
2024-01-10T05:08:10.836Z,971.97
2024-01-10T05:09:10.801Z,971.99
2024-01-10T05:10:10.818Z,971.92
2024-01-10T05:11:10.847Z,972.03
2024-01-10T05:12:10.787Z,971.97
2024-01-10T05:13:10.760Z,971.99
2024-01-10T05:14:10.816Z,972.03
2024-01-10T05:15:10.735Z,971.95
2024-01-10T05:16:10.748Z,971.97
2024-01-10T05:17:10.790Z,971.97
2024-01-10T05:18:10.958Z,972.00
2024-01-10T05:19:10.718Z,971.99
2024-01-10T05:20:10.722Z,971.99
2024-01-10T05:21:10.741Z,972.01
2024-01-10T05:22:10.662Z,971.99
2024-01-10T05:23:10.730Z,972.01
2024-01-10T05:24:10.657Z,972.01
2024-01-10T05:25:10.629Z,971.98
2024-01-10T05:26:10.708Z,971.96
2024-01-10T05:27:10.618Z,972.02
2024-01-10T05:28:10.595Z,972.00
2024-01-10T05:29:10.676Z,972.07
2024-01-10T05:30:10.666Z,972.02
2024-01-10T05:31:10.664Z,972.07
2024-01-10T05:32:10.580Z,972.14
2024-01-10T05:33:10.616Z,972.10
2024-01-10T05:34:10.621Z,972.14
2024-01-10T05:35:10.597Z,972.14
2024-01-10T05:36:10.523Z,972.13
2024-01-10T05:37:10.491Z,972.15
2024-01-10T05:38:10.550Z,972.14
2024-01-10T05:39:10.509Z,972.20
2024-01-10T05:40:10.476Z,972.17
2024-01-10T05:41:10.611Z,972.23
2024-01-10T05:42:10.498Z,972.20
2024-01-10T05:43:10.430Z,972.24
2024-01-10T05:44:10.469Z,972.24
2024-01-10T05:45:10.440Z,972.22
2024-01-10T05:46:10.433Z,972.21
2024-01-10T05:47:10.483Z,972.25
2024-01-10T05:48:10.503Z,972.20
2024-01-10T05:49:10.582Z,972.27
2024-01-10T05:50:10.424Z,972.26
2024-01-10T05:51:10.348Z,972.29
2024-01-10T05:52:10.392Z,972.27
2024-01-10T05:53:10.367Z,972.30
2024-01-10T05:54:10.325Z,972.28
2024-01-10T05:55:10.306Z,972.22
2024-01-10T05:56:10.329Z,972.23
2024-01-10T05:57:10.428Z,972.26
2024-01-10T05:58:10.307Z,972.19
2024-01-10T05:59:10.322Z,972.26
2024-01-10T06:00:10.271Z,972.20
2024-01-10T06:01:10.285Z,972.23
2024-01-10T06:02:10.339Z,972.25
2024-01-10T06:03:10.270Z,972.26
2024-01-10T06:04:10.251Z,972.19
2024-01-10T06:05:10.400Z,972.18
2024-01-10T06:06:10.273Z,972.22
2024-01-10T06:07:10.170Z,972.16
2024-01-10T06:08:10.232Z,972.15
2024-01-10T06:09:10.152Z,972.19
2024-01-10T06:10:10.177Z,972.17
2024-01-10T06:11:10.433Z,972.17
2024-01-10T06:12:10.130Z,972.12
2024-01-10T06:13:10.105Z,972.18
2024-01-10T06:14:10.230Z,972.16
2024-01-10T06:15:10.136Z,972.14
2024-01-10T06:16:10.100Z,972.18
2024-01-10T06:17:10.209Z,972.20
2024-01-10T06:18:10.151Z,972.16
2024-01-10T06:19:10.099Z,972.17
2024-01-10T06:20:10.266Z,972.15
2024-01-10T06:21:10.063Z,972.22
2024-01-10T06:22:10.049Z,972.20
2024-01-10T06:23:10.053Z,972.21
2024-01-10T06:24:10.037Z,972.19
2024-01-10T06:25:10.041Z,972.20
2024-01-10T06:26:10.093Z,972.22
2024-01-10T06:27:09.963Z,972.23
2024-01-10T06:28:09.945Z,972.23
2024-01-10T06:29:10.046Z,972.17
2024-01-10T06:30:10.046Z,972.24
2024-01-10T06:31:12.506Z,972.27
2024-01-10T06:32:10.001Z,972.27
2024-01-10T06:33:10.067Z,972.29
2024-01-10T06:34:09.951Z,972.24
2024-01-10T06:35:09.893Z,972.26
2024-01-10T06:36:10.119Z,972.26
2024-01-10T06:37:09.862Z,972.33
2024-01-10T06:38:10.025Z,972.27
2024-01-10T06:39:09.938Z,972.32
2024-01-10T06:40:09.895Z,972.32
2024-01-10T06:41:10.028Z,972.32
2024-01-10T06:42:09.807Z,972.29
2024-01-10T06:43:09.864Z,972.29
2024-01-10T06:44:09.845Z,972.25
2024-01-10T06:45:09.806Z,972.33
2024-01-10T06:46:09.798Z,972.32
2024-01-10T06:47:09.819Z,972.28
2024-01-10T06:48:09.792Z,972.28
2024-01-10T06:49:09.749Z,972.29
2024-01-10T06:50:09.758Z,972.27
2024-01-10T06:51:09.694Z,972.29
2024-01-10T06:52:09.682Z,972.32
2024-01-10T06:53:09.831Z,972.31
2024-01-10T06:54:09.669Z,972.33
2024-01-10T06:55:09.683Z,972.31
2024-01-10T06:56:09.737Z,972.30
2024-01-10T06:57:09.628Z,972.33
2024-01-10T06:58:09.617Z,972.39
2024-01-10T06:59:09.663Z,972.37
2024-01-10T07:00:09.657Z,972.41
2024-01-10T07:01:09.684Z,972.47
2024-01-10T07:02:09.628Z,972.45
2024-01-10T07:03:09.604Z,972.48
2024-01-10T07:04:09.557Z,972.49
2024-01-10T07:05:09.664Z,972.48
2024-01-10T07:06:09.697Z,972.42
2024-01-10T07:07:09.654Z,972.44
2024-01-10T07:08:09.554Z,972.43
2024-01-10T07:09:09.505Z,972.41
2024-01-10T07:10:09.505Z,972.48
2024-01-10T07:11:09.597Z,972.48
2024-01-10T07:12:09.541Z,972.48
2024-01-10T07:13:09.476Z,972.50
2024-01-10T07:14:09.567Z,972.47
2024-01-10T07:15:09.439Z,972.49
2024-01-10T07:16:09.449Z,972.45
2024-01-10T07:17:09.442Z,972.52
2024-01-10T07:18:09.532Z,972.54
2024-01-10T07:19:09.469Z,972.50
2024-01-10T07:20:09.463Z,972.48
2024-01-10T07:21:09.375Z,972.51
2024-01-10T07:22:09.368Z,972.48
2024-01-10T07:23:09.444Z,972.54
2024-01-10T07:24:09.367Z,972.54
2024-01-10T07:25:09.440Z,972.49
2024-01-10T07:26:09.442Z,972.58
2024-01-10T07:27:09.344Z,972.59
2024-01-10T07:28:09.318Z,972.62
2024-01-10T07:29:09.748Z,972.59
2024-01-10T07:30:09.312Z,972.56
2024-01-10T07:31:09.344Z,972.55
2024-01-10T07:32:09.376Z,972.61
2024-01-10T07:33:09.641Z,972.54
2024-01-10T07:34:09.487Z,972.59
2024-01-10T07:35:09.271Z,972.68
2024-01-10T07:36:09.256Z,972.61
2024-01-10T07:37:09.230Z,972.73
2024-01-10T07:38:09.503Z,972.65
2024-01-10T07:39:09.178Z,972.73
2024-01-10T07:40:09.171Z,972.73
2024-01-10T07:41:09.186Z,972.78
2024-01-10T07:42:09.209Z,972.73
2024-01-10T07:43:09.134Z,972.78
2024-01-10T07:44:09.199Z,972.72
2024-01-10T07:45:09.112Z,972.80
2024-01-10T07:46:09.128Z,972.84
2024-01-10T07:47:09.145Z,972.84
2024-01-10T07:48:09.251Z,972.82
2024-01-10T07:49:09.130Z,972.79
2024-01-10T07:50:09.149Z,972.89
2024-01-10T07:51:09.062Z,972.89
2024-01-10T07:52:09.057Z,972.87
2024-01-10T07:53:09.154Z,972.92
2024-01-10T07:54:09.069Z,972.89
2024-01-10T07:55:09.003Z,972.91
2024-01-10T07:56:09.058Z,972.89
2024-01-10T07:57:08.989Z,972.88
2024-01-10T07:58:08.974Z,972.94
2024-01-10T07:59:17.937Z,972.93
2024-01-10T08:00:08.954Z,972.95
2024-01-10T08:01:09.013Z,972.94
2024-01-10T08:02:08.963Z,972.88
2024-01-10T08:03:08.955Z,972.83
2024-01-10T08:04:08.922Z,972.92
2024-01-10T08:05:09.048Z,972.87
2024-01-10T08:06:17.523Z,972.88
2024-01-10T08:07:09.876Z,972.85
2024-01-10T08:08:08.911Z,972.90
2024-01-10T08:09:08.865Z,972.94
2024-01-10T08:10:08.912Z,972.88
2024-01-10T08:11:08.954Z,972.94
2024-01-10T08:12:08.824Z,972.93
2024-01-10T08:13:08.825Z,972.95
2024-01-10T08:14:08.932Z,972.96
2024-01-10T08:15:08.847Z,972.93
2024-01-10T08:16:08.810Z,972.97
2024-01-10T08:17:08.861Z,972.93
2024-01-10T08:18:08.942Z,973.00
2024-01-10T08:19:09.024Z,973.02
2024-01-10T08:20:08.866Z,972.99
2024-01-10T08:21:08.746Z,972.96
2024-01-10T08:22:08.753Z,972.96
2024-01-10T08:23:08.766Z,972.92
2024-01-10T08:24:08.707Z,972.92
2024-01-10T08:25:08.704Z,972.98
2024-01-10T08:26:08.793Z,972.87
2024-01-10T08:27:08.703Z,972.83
2024-01-10T08:28:08.696Z,972.88
2024-01-10T08:29:08.678Z,972.92
2024-01-10T08:30:08.666Z,972.88
2024-01-10T08:31:08.738Z,972.91
2024-01-10T08:32:08.716Z,972.91
2024-01-10T08:33:08.690Z,972.88
2024-01-10T08:34:08.662Z,972.89
2024-01-10T08:35:08.616Z,972.87
2024-01-10T08:36:08.581Z,972.90
2024-01-10T08:37:08.567Z,972.86
2024-01-10T08:38:08.724Z,972.96
2024-01-10T08:39:08.581Z,972.90
2024-01-10T08:40:08.612Z,972.93
2024-01-10T08:41:08.561Z,972.99
2024-01-10T08:42:08.544Z,972.93
2024-01-10T08:43:08.490Z,972.94
2024-01-10T08:44:08.506Z,972.95
2024-01-10T08:45:08.496Z,972.93
2024-01-10T08:46:08.544Z,972.94
2024-01-10T08:47:08.541Z,972.90
2024-01-10T08:48:10.646Z,972.93
2024-01-10T08:49:08.479Z,972.94
2024-01-10T08:50:08.503Z,972.96
2024-01-10T08:51:08.443Z,972.95
2024-01-10T08:52:08.462Z,973.02
2024-01-10T08:53:08.523Z,972.96
2024-01-10T08:54:08.391Z,973.00
2024-01-10T08:55:11.254Z,973.07
2024-01-10T08:56:09.432Z,972.97
2024-01-10T08:57:08.340Z,972.96
2024-01-10T08:58:08.476Z,973.02
2024-01-10T08:59:08.415Z,972.98
2024-01-10T09:00:08.305Z,972.99
2024-01-10T09:01:08.365Z,973.02
2024-01-10T09:02:08.405Z,973.00
2024-01-10T09:03:08.312Z,973.01
2024-01-10T09:04:08.342Z,973.04
2024-01-10T09:05:08.394Z,973.02
2024-01-10T09:06:11.545Z,973.12
2024-01-10T09:07:08.325Z,973.14
2024-01-10T09:08:08.315Z,973.17
2024-01-10T09:09:08.245Z,973.15
2024-01-10T09:10:08.232Z,973.20
2024-01-10T09:11:08.282Z,973.19
2024-01-10T09:12:08.192Z,973.16
2024-01-10T09:13:08.183Z,973.18
2024-01-10T09:14:08.234Z,973.23
2024-01-10T09:15:08.147Z,973.23
2024-01-10T09:16:08.211Z,973.24
2024-01-10T09:17:08.199Z,973.22
2024-01-10T09:18:08.244Z,973.18
2024-01-10T09:19:11.559Z,973.20
2024-01-10T09:20:08.145Z,973.19
2024-01-10T09:21:08.081Z,973.18
2024-01-10T09:22:08.557Z,973.24
2024-01-10T09:23:08.103Z,973.21
2024-01-10T09:24:18.103Z,973.26
2024-01-10T09:25:09.082Z,973.23
2024-01-10T09:26:08.071Z,973.27
2024-01-10T09:27:08.013Z,973.21
2024-01-10T09:28:08.045Z,973.22
2024-01-10T09:29:08.078Z,973.24
2024-01-10T09:30:08.047Z,973.20
2024-01-10T09:31:08.069Z,973.21
2024-01-10T09:32:08.032Z,973.18
2024-01-10T09:33:08.042Z,973.21
2024-01-10T09:34:08.115Z,973.26
2024-01-10T09:35:08.116Z,973.26
2024-01-10T09:36:07.929Z,973.19
2024-01-10T09:37:07.908Z,973.26
2024-01-10T09:38:07.984Z,973.26
2024-01-10T09:39:07.910Z,973.19
2024-01-10T09:40:07.899Z,973.18
2024-01-10T09:41:07.988Z,973.23
2024-01-10T09:42:08.148Z,973.25
2024-01-10T09:43:07.841Z,973.30
2024-01-10T09:44:07.908Z,973.26
2024-01-10T09:45:07.914Z,973.27
2024-01-10T09:46:07.845Z,973.25
2024-01-10T09:47:07.849Z,973.25
2024-01-10T09:48:07.888Z,973.26
2024-01-10T09:49:07.895Z,973.30
2024-01-10T09:50:07.926Z,973.29
2024-01-10T09:51:07.787Z,973.32
2024-01-10T09:52:07.746Z,973.27
2024-01-10T09:53:08.141Z,973.32
2024-01-10T09:54:07.756Z,973.35
2024-01-10T09:55:07.795Z,973.27
2024-01-10T09:56:07.781Z,973.29
2024-01-10T09:57:07.701Z,973.31
2024-01-10T09:58:07.683Z,973.33
2024-01-10T09:59:07.736Z,973.31
2024-01-10T10:00:07.675Z,973.31
2024-01-10T10:01:07.784Z,973.24
2024-01-10T10:02:07.733Z,973.29
2024-01-10T10:03:08.407Z,973.28
2024-01-10T10:04:07.630Z,973.27
2024-01-10T10:05:07.905Z,973.26
2024-01-10T10:06:07.663Z,973.31
2024-01-10T10:07:07.911Z,973.27
2024-01-10T10:08:07.707Z,973.31
2024-01-10T10:09:07.592Z,973.27
2024-01-10T10:10:07.562Z,973.31
2024-01-10T10:11:07.624Z,973.33
2024-01-10T10:12:07.537Z,973.33
2024-01-10T10:13:07.612Z,973.33
2024-01-10T10:14:07.571Z,973.29
2024-01-10T10:15:07.540Z,973.31
2024-01-10T10:16:07.524Z,973.30
2024-01-10T10:17:07.527Z,973.32
2024-01-10T10:18:07.556Z,973.29
2024-01-10T10:19:07.611Z,973.31
2024-01-10T10:20:07.533Z,973.30
2024-01-10T10:21:07.444Z,973.25
2024-01-10T10:22:07.452Z,973.24
2024-01-10T10:23:07.762Z,973.27
2024-01-10T10:24:07.423Z,973.22
2024-01-10T10:25:07.489Z,973.21
2024-01-10T10:26:07.499Z,973.16
2024-01-10T10:27:07.391Z,973.15
2024-01-10T10:28:08.233Z,973.21
2024-01-10T10:29:07.519Z,973.20
2024-01-10T10:30:07.402Z,973.20
2024-01-10T10:31:07.380Z,973.22
2024-01-10T10:32:07.571Z,973.22
2024-01-10T10:33:07.411Z,973.23
2024-01-10T10:34:07.448Z,973.27
2024-01-10T10:35:12.460Z,973.22
2024-01-10T10:36:08.308Z,973.24
2024-01-10T10:37:07.272Z,973.25
2024-01-10T10:38:07.332Z,973.27
2024-01-10T10:39:07.272Z,973.31
2024-01-10T10:40:07.254Z,973.30
2024-01-10T10:41:07.292Z,973.33
2024-01-10T10:42:07.225Z,973.34
2024-01-10T10:43:07.224Z,973.27
2024-01-10T10:44:07.294Z,973.26
2024-01-10T10:45:07.197Z,973.28
2024-01-10T10:46:07.170Z,973.26
2024-01-10T10:47:12.206Z,973.34
2024-01-10T10:48:08.360Z,973.37
2024-01-10T10:49:07.382Z,973.39
2024-01-10T10:50:07.252Z,973.44
2024-01-10T10:51:07.129Z,973.36
2024-01-10T10:52:07.137Z,973.38
2024-01-10T10:53:07.168Z,973.40
2024-01-10T10:54:07.094Z,973.38
2024-01-10T10:55:07.143Z,973.41
2024-01-10T10:56:07.179Z,973.36
2024-01-10T10:57:07.092Z,973.38
2024-01-10T10:58:11.310Z,973.30
2024-01-10T10:59:08.111Z,973.33
2024-01-10T11:00:07.050Z,973.30
2024-01-10T11:01:07.126Z,973.32
2024-01-10T11:02:07.051Z,973.33
2024-01-10T11:03:07.028Z,973.35
2024-01-10T11:04:07.058Z,973.31
2024-01-10T11:05:07.039Z,973.33
2024-01-10T11:06:07.211Z,973.38
2024-01-10T11:07:07.098Z,973.36
2024-01-10T11:08:07.094Z,973.40
2024-01-10T11:09:06.944Z,973.36
2024-01-10T11:10:06.962Z,973.35
2024-01-10T11:11:07.016Z,973.43
2024-01-10T11:12:06.920Z,973.36
2024-01-10T11:13:06.882Z,973.37
2024-01-10T11:14:06.938Z,973.37
2024-01-10T11:15:06.859Z,973.37
2024-01-10T11:16:06.906Z,973.31
2024-01-10T11:17:06.928Z,973.40
2024-01-10T11:18:06.956Z,973.36
2024-01-10T11:19:06.869Z,973.31
2024-01-10T11:20:06.924Z,973.35
2024-01-10T11:21:06.791Z,973.40
2024-01-10T11:22:06.842Z,973.34
2024-01-10T11:23:06.806Z,973.37
2024-01-10T11:24:06.768Z,973.36
2024-01-10T11:25:06.781Z,973.40
2024-01-10T11:26:06.852Z,973.34
2024-01-10T11:27:06.810Z,973.34
2024-01-10T11:28:07.795Z,973.37
2024-01-10T11:29:06.733Z,973.37
2024-01-10T11:30:06.768Z,973.36
2024-01-10T11:31:06.740Z,973.37
2024-01-10T11:32:06.734Z,973.36
2024-01-10T11:33:06.746Z,973.35
2024-01-10T11:34:06.799Z,973.42
2024-01-10T11:35:06.696Z,973.34
2024-01-10T11:36:06.668Z,973.33
2024-01-10T11:37:06.628Z,973.37
2024-01-10T11:38:06.768Z,973.31
2024-01-10T11:39:06.598Z,973.36
2024-01-10T11:40:06.676Z,973.36
2024-01-10T11:41:08.270Z,973.37
2024-01-10T11:42:06.587Z,973.36
2024-01-10T11:43:06.597Z,973.36
2024-01-10T11:44:06.567Z,973.34
2024-01-10T11:45:06.532Z,973.31
2024-01-10T11:46:06.539Z,973.31
2024-01-10T11:47:06.580Z,973.34
2024-01-10T11:48:06.730Z,973.31
2024-01-10T11:49:06.644Z,973.30
2024-01-10T11:50:06.517Z,973.29
2024-01-10T11:51:06.465Z,973.29
2024-01-10T11:52:06.466Z,973.24
2024-01-10T11:53:06.473Z,973.26
2024-01-10T11:54:06.470Z,973.28
2024-01-10T11:55:06.432Z,973.26
2024-01-10T11:56:06.518Z,973.20
2024-01-10T11:57:06.447Z,973.21
2024-01-10T11:58:06.414Z,973.17
2024-01-10T11:59:06.483Z,973.22
2024-01-10T12:00:06.438Z,973.23
2024-01-10T12:01:06.385Z,973.18
2024-01-10T12:02:06.377Z,973.23
2024-01-10T12:03:06.362Z,973.20
2024-01-10T12:04:14.275Z,973.24
2024-01-10T12:05:07.347Z,973.18
2024-01-10T12:06:06.528Z,973.17
2024-01-10T12:07:06.444Z,973.13
2024-01-10T12:08:06.359Z,973.21
2024-01-10T12:09:06.305Z,973.13
2024-01-10T12:10:06.260Z,973.18
2024-01-10T12:11:06.328Z,973.14
2024-01-10T12:12:06.283Z,973.11
2024-01-10T12:13:06.236Z,973.21
2024-01-10T12:14:06.310Z,973.21
2024-01-10T12:15:06.225Z,973.14
2024-01-10T12:16:06.198Z,973.19
2024-01-10T12:17:06.332Z,973.16
2024-01-10T12:18:06.953Z,973.17
2024-01-10T12:19:06.222Z,973.15
2024-01-10T12:20:06.189Z,973.19
2024-01-10T12:21:06.139Z,973.13
2024-01-10T12:22:07.984Z,973.17
2024-01-10T12:23:06.192Z,973.14
2024-01-10T12:24:06.097Z,973.13
2024-01-10T12:25:06.129Z,973.14
2024-01-10T12:26:06.185Z,973.11
2024-01-10T12:27:06.098Z,973.09
2024-01-10T12:28:06.070Z,973.06